Time;durP1;ratioP1;P1;durP2;ratioP2;P2;SDS_P1;SDS_P2;PMS_P1;PMS_P2;Temp;Humidity;BMP_temperature;BMP_pressure;BME280_temperature;BME280_humidity;BME280_pressure;Samples;Min_cycle;Max_cycle;Signal;HPM_P1;HPM_P2
2022/05/08 00:00:28;;;;;;;0.40;0.40;;;;;;;;;;1895430;75;26238;-43
2022/05/08 00:02:57;;;;;;;0.40;0.40;;;;;;;;;;1886200;75;26745;-44
2022/05/08 00:05:25;;;;;;;0.20;0.20;;;;;;;;;;1895615;75;26334;-46
2022/05/08 00:07:52;;;;;;;0.20;0.20;;;;;;;;;;1881149;75;26655;-48
2022/05/08 00:10:20;;;;;;;0.62;0.30;;;;;;;;;;1879895;76;26380;-46
2022/05/08 00:12:47;;;;;;;0.30;0.30;;;;;;;;;;1880214;75;26270;-45
2022/05/08 00:15:14;;;;;;;0.23;0.23;;;;;;;;;;1869251;75;26251;-46
2022/05/08 00:17:44;;;;;;;0.30;0.30;;;;;;;;;;1879057;76;26328;-46
2022/05/08 00:20:12;;;;;;;0.68;0.37;;;;;;;;;;1879034;75;26324;-44
2022/05/08 00:22:46;;;;;;;0.28;0.28;;;;;;;;;;1879003;76;26252;-46
2022/05/08 00:25:13;;;;;;;0.47;0.30;;;;;;;;;;1889949;75;27351;-45
2022/05/08 00:27:41;;;;;;;0.25;0.25;;;;;;;;;;1893568;75;26289;-44
2022/05/08 00:30:09;;;;;;;0.20;0.20;;;;;;;;;;1879813;76;26679;-42
2022/05/08 00:32:36;;;;;;;1.15;0.37;;;;;;;;;;1880111;76;26270;-42
2022/05/08 00:35:04;;;;;;;0.60;0.30;;;;;;;;;;1885442;75;26240;-43
2022/05/08 00:37:31;;;;;;;0.40;0.30;;;;;;;;;;1895592;75;26692;-43
2022/05/08 00:39:58;;;;;;;0.20;0.20;;;;;;;;;;1879927;76;26580;-44
2022/05/08 00:42:27;;;;;;;0.20;0.20;;;;;;;;;;1868328;76;26458;-45
2022/05/08 00:44:54;;;;;;;0.30;0.30;;;;;;;;;;1878319;76;26651;-48
2022/05/08 00:47:21;;;;;;;0.40;0.40;;;;;;;;;;1876154;75;26725;-47
2022/05/08 00:49:49;;;;;;;0.30;0.30;;;;;;;;;;1874280;76;26735;-43
2022/05/08 00:52:17;;;;;;;0.20;0.20;;;;;;;;;;1877574;76;26348;-44
2022/05/08 00:54:45;;;;;;;0.10;0.10;;;;;;;;;;1880153;76;26216;-45
2022/05/08 00:57:13;;;;;;;0.30;0.30;;;;;;;;;;1869652;75;26234;-45
2022/05/08 00:59:41;;;;;;;1.35;0.30;;;;;;;;;;1879513;76;26243;-48
2022/05/08 01:02:08;;;;;;;0.20;0.20;;;;;;;;;;1859044;76;27781;-44
2022/05/08 01:04:35;;;;;;;0.40;0.40;;;;;;;;;;1880270;75;26535;-42
2022/05/08 01:07:03;;;;;;;0.28;0.28;;;;;;;;;;1875252;76;26239;-45
2022/05/08 01:09:30;;;;;;;0.20;0.20;;;;;;;;;;1891830;74;26371;-46
2022/05/08 01:11:57;;;;;;;0.57;0.40;;;;;;;;;;1882870;75;26836;-45
2022/05/08 01:14:25;;;;;;;0.20;0.20;;;;;;;;;;1893915;75;27287;-43
2022/05/08 01:16:52;;;;;;;0.30;0.30;;;;;;;;;;1895305;74;26321;-44
2022/05/08 01:19:19;;;;;;;2.08;0.40;;;;;;;;;;1895386;75;26730;-48
2022/05/08 01:21:47;;;;;;;0.20;0.20;;;;;;;;;;1889589;74;26766;-45
2022/05/08 01:24:20;;;;;;;0.20;0.20;;;;;;;;;;1895618;75;26804;-46
2022/05/08 01:26:43;;;;;;;0.30;0.30;;;;;;;;;;1895133;75;26396;-47
2022/05/08 01:29:10;;;;;;;0.20;0.20;;;;;;;;;;1893105;75;26258;-46
2022/05/08 01:31:37;;;;;;;0.30;0.20;;;;;;;;;;1884539;74;26254;-42
2022/05/08 01:34:05;;;;;;;0.45;0.20;;;;;;;;;;1895577;75;26250;-44
2022/05/08 01:36:32;;;;;;;0.15;0.15;;;;;;;;;;1898409;74;26230;-44
2022/05/08 01:38:59;;;;;;;1.35;0.20;;;;;;;;;;1888224;75;26356;-42
2022/05/08 01:41:26;;;;;;;0.30;0.30;;;;;;;;;;1886727;75;26273;-44
2022/05/08 01:43:54;;;;;;;0.20;0.20;;;;;;;;;;1889896;75;26183;-45
2022/05/08 01:46:21;;;;;;;0.23;0.20;;;;;;;;;;1895693;75;26702;-44
2022/05/08 01:48:49;;;;;;;0.20;0.20;;;;;;;;;;1893881;75;26820;-46
2022/05/08 01:51:16;;;;;;;0.20;0.20;;;;;;;;;;1895594;75;26316;-46
2022/05/08 01:53:44;;;;;;;0.20;0.20;;;;;;;;;;1900089;74;26468;-48
2022/05/08 01:56:12;;;;;;;0.20;0.20;;;;;;;;;;1894446;74;26230;-47
2022/05/08 01:58:39;;;;;;;0.30;0.30;;;;;;;;;;1895230;75;26685;-44
2022/05/08 02:01:08;;;;;;;0.20;0.20;;;;;;;;;;1895429;75;26718;-47
2022/05/08 02:03:36;;;;;;;0.20;0.20;;;;;;;;;;1894335;75;26706;-49
2022/05/08 02:06:03;;;;;;;1.22;0.30;;;;;;;;;;1878054;74;26284;-44
2022/05/08 02:08:30;;;;;;;0.20;0.20;;;;;;;;;;1827118;77;26296;-43
2022/05/08 02:10:58;;;;;;;0.23;0.23;;;;;;;;;;1822879;78;26283;-44
2022/05/08 02:13:25;;;;;;;0.20;0.20;;;;;;;;;;1824654;78;26275;-45
2022/05/08 02:15:52;;;;;;;0.10;0.10;;;;;;;;;;1811087;78;26851;-43
2022/05/08 02:18:20;;;;;;;0.65;0.30;;;;;;;;;;1828993;78;26722;-45
2022/05/08 02:20:47;;;;;;;0.30;0.30;;;;;;;;;;1826075;78;26299;-42
2022/05/08 02:23:14;;;;;;;0.28;0.28;;;;;;;;;;1818828;78;26314;-43
2022/05/08 02:25:42;;;;;;;0.20;0.20;;;;;;;;;;1839997;78;26729;-42
2022/05/08 02:28:09;;;;;;;0.30;0.17;;;;;;;;;;1834184;78;26285;-45
2022/05/08 02:30:37;;;;;;;0.20;0.20;;;;;;;;;;1836765;78;26307;-43
2022/05/08 02:33:04;;;;;;;0.25;0.25;;;;;;;;;;1839931;78;26335;-46
2022/05/08 02:35:33;;;;;;;0.33;0.10;;;;;;;;;;1840055;78;26245;-45
2022/05/08 02:38:00;;;;;;;0.13;0.13;;;;;;;;;;1820689;79;26697;-45
2022/05/08 02:40:28;;;;;;;0.20;0.20;;;;;;;;;;1823392;78;26933;-47
2022/05/08 02:42:55;;;;;;;0.20;0.20;;;;;;;;;;1817983;78;26307;-48
2022/05/08 02:45:23;;;;;;;0.20;0.20;;;;;;;;;;1812143;78;26271;-45
2022/05/08 02:47:50;;;;;;;0.20;0.20;;;;;;;;;;1827752;78;26897;-44
2022/05/08 02:50:19;;;;;;;0.17;0.17;;;;;;;;;;1822762;78;26278;-43
2022/05/08 02:52:47;;;;;;;0.10;0.10;;;;;;;;;;1832832;78;26269;-44
2022/05/08 03:00:46;;;;;;;0.50;0.30;;;;;;;;;;1832202;78;26326;-42
2022/05/08 03:03:14;;;;;;;0.20;0.20;;;;;;;;;;1814036;78;27368;-42
2022/05/08 03:05:43;;;;;;;0.20;0.20;;;;;;;;;;1819143;78;26254;-47
2022/05/08 03:08:11;;;;;;;0.40;0.33;;;;;;;;;;1813361;78;26287;-45
2022/05/08 03:13:24;;;;;;;0.30;0.30;;;;;;;;;;1828547;76;26745;-46
2022/05/08 03:15:51;;;;;;;0.10;0.10;;;;;;;;;;1853475;76;26320;-44
2022/05/08 03:18:21;;;;;;;0.20;0.20;;;;;;;;;;1838878;78;26331;-44
2022/05/08 03:20:49;;;;;;;0.20;0.20;;;;;;;;;;1852324;77;26254;-49
2022/05/08 03:23:17;;;;;;;0.20;0.20;;;;;;;;;;1822518;78;26371;-48
2022/05/08 03:25:44;;;;;;;0.20;0.20;;;;;;;;;;1813986;78;26902;-46
2022/05/08 03:28:15;;;;;;;0.20;0.20;;;;;;;;;;1832335;78;26265;-46
2022/05/08 03:30:43;;;;;;;0.20;0.20;;;;;;;;;;1820185;78;26359;-48
2022/05/08 03:33:11;;;;;;;0.30;0.30;;;;;;;;;;1821336;79;26248;-45
2022/05/08 03:35:39;;;;;;;0.40;0.25;;;;;;;;;;1828601;78;26868;-44
2022/05/08 03:38:07;;;;;;;0.20;0.20;;;;;;;;;;1837967;78;26257;-46
2022/05/08 03:40:35;;;;;;;1.60;0.20;;;;;;;;;;1815395;78;26661;-46
2022/05/08 03:43:03;;;;;;;1.15;0.20;;;;;;;;;;1819621;78;26232;-42
2022/05/08 03:45:30;;;;;;;0.20;0.20;;;;;;;;;;1822783;78;26705;-47
2022/05/08 03:48:02;;;;;;;1.20;0.13;;;;;;;;;;1824905;78;26269;-44
2022/05/08 03:50:27;;;;;;;0.23;0.20;;;;;;;;;;1805534;79;26337;-45
2022/05/08 03:52:55;;;;;;;0.13;0.13;;;;;;;;;;1833548;78;26789;-43
2022/05/08 03:55:22;;;;;;;0.50;0.30;;;;;;;;;;1831385;78;26292;-46
2022/05/08 03:57:50;;;;;;;0.17;0.17;;;;;;;;;;1832900;78;26365;-45
2022/05/08 04:00:17;;;;;;;0.23;0.23;;;;;;;;;;1825640;78;26686;-42
2022/05/08 04:02:45;;;;;;;0.30;0.30;;;;;;;;;;1825777;78;26327;-48
2022/05/08 04:05:12;;;;;;;0.40;0.40;;;;;;;;;;1824036;78;25682;-45
2022/05/08 04:07:40;;;;;;;0.28;0.20;;;;;;;;;;1821165;78;26760;-45
2022/05/08 04:10:08;;;;;;;0.20;0.20;;;;;;;;;;1821518;77;26375;-46
2022/05/08 04:12:36;;;;;;;0.20;0.20;;;;;;;;;;1833313;78;26846;-48
2022/05/08 04:15:04;;;;;;;0.20;0.20;;;;;;;;;;1831570;78;27528;-48
2022/05/08 04:17:33;;;;;;;0.33;0.33;;;;;;;;;;1827945;78;27317;-44
2022/05/08 04:20:00;;;;;;;0.23;0.23;;;;;;;;;;1831576;77;26273;-45
2022/05/08 04:25:13;;;;;;;1.00;0.30;;;;;;;;;;1838264;78;26348;-49
2022/05/08 04:27:40;;;;;;;0.23;0.23;;;;;;;;;;1830694;78;26757;-46
2022/05/08 04:30:09;;;;;;;0.30;0.30;;;;;;;;;;1836846;78;26359;-43
2022/05/08 04:32:36;;;;;;;0.20;0.20;;;;;;;;;;1829579;78;26343;-45
2022/05/08 04:35:04;;;;;;;0.30;0.30;;;;;;;;;;1826793;78;26350;-43
2022/05/08 04:37:31;;;;;;;0.20;0.20;;;;;;;;;;1834776;78;26268;-43
2022/05/08 04:39:58;;;;;;;0.47;0.47;;;;;;;;;;1819336;78;26338;-45
2022/05/08 04:42:26;;;;;;;0.33;0.33;;;;;;;;;;1816463;77;26273;-47
2022/05/08 04:44:54;;;;;;;0.33;0.33;;;;;;;;;;1825169;78;26826;-48
2022/05/08 04:47:22;;;;;;;0.35;0.35;;;;;;;;;;1854239;77;26321;-43
2022/05/08 04:49:49;;;;;;;1.92;0.60;;;;;;;;;;1828911;78;26272;-46
2022/05/08 04:52:16;;;;;;;0.55;0.30;;;;;;;;;;1829440;78;26209;-43
2022/05/08 04:54:44;;;;;;;0.40;0.40;;;;;;;;;;1820165;77;26253;-47
2022/05/08 04:57:11;;;;;;;0.30;0.30;;;;;;;;;;1826806;78;26338;-45
2022/05/08 04:59:39;;;;;;;0.40;0.40;;;;;;;;;;1829681;78;26265;-42
2022/05/08 05:02:08;;;;;;;1.45;0.30;;;;;;;;;;1816736;78;26248;-44
2022/05/08 05:04:36;;;;;;;2.08;0.60;;;;;;;;;;1835937;78;26300;-46
2022/05/08 05:07:04;;;;;;;0.20;0.20;;;;;;;;;;1822285;78;26245;-43
2022/05/08 05:09:31;;;;;;;0.53;0.50;;;;;;;;;;1821080;77;27823;-45
2022/05/08 05:11:59;;;;;;;1.07;0.30;;;;;;;;;;1823045;77;26980;-45
2022/05/08 05:14:26;;;;;;;1.00;0.50;;;;;;;;;;1873886;75;26703;-45
2022/05/08 05:16:53;;;;;;;2.02;0.47;;;;;;;;;;1881417;75;26237;-43
2022/05/08 05:19:20;;;;;;;0.72;0.35;;;;;;;;;;1875834;76;26243;-44
2022/05/08 05:21:48;;;;;;;0.55;0.55;;;;;;;;;;1874913;75;26239;-47
2022/05/08 05:24:15;;;;;;;2.00;0.42;;;;;;;;;;1878245;76;26336;-46
2022/05/08 05:26:42;;;;;;;1.75;0.40;;;;;;;;;;1867435;76;26238;-45
2022/05/08 05:29:09;;;;;;;0.40;0.40;;;;;;;;;;1861498;76;26233;-46
2022/05/08 05:31:37;;;;;;;0.65;0.50;;;;;;;;;;1873909;76;26328;-48
2022/05/08 05:34:04;;;;;;;0.62;0.40;;;;;;;;;;1878702;76;26230;-44
2022/05/08 05:36:31;;;;;;;1.75;0.60;;;;;;;;;;1879396;76;26251;-44
2022/05/08 05:38:59;;;;;;;0.85;0.60;;;;;;;;;;1877563;75;26341;-43
2022/05/08 05:41:26;;;;;;;1.42;0.50;;;;;;;;;;1872028;76;26336;-47
2022/05/08 05:43:54;;;;;;;1.50;0.37;;;;;;;;;;1868336;75;26305;-44
2022/05/08 05:49:07;;;;;;;1.90;0.60;;;;;;;;;;1877642;76;26788;-46
2022/05/08 05:51:34;;;;;;;0.85;0.50;;;;;;;;;;1870768;75;26227;-44
2022/05/08 05:54:02;;;;;;;1.07;0.60;;;;;;;;;;1873178;76;26239;-46
2022/05/08 05:56:29;;;;;;;0.42;0.40;;;;;;;;;;1864555;76;26306;-49
2022/05/08 05:58:57;;;;;;;0.30;0.30;;;;;;;;;;1858217;76;26230;-44
2022/05/08 06:01:24;;;;;;;0.60;0.53;;;;;;;;;;1888916;75;26293;-46
2022/05/08 06:03:51;;;;;;;0.53;0.42;;;;;;;;;;1871948;75;26285;-46
2022/05/08 06:06:19;;;;;;;0.50;0.40;;;;;;;;;;1865195;75;26300;-45
2022/05/08 06:08:47;;;;;;;9.53;0.95;;;;;;;;;;1869305;76;26305;-46
2022/05/08 06:11:15;;;;;;;0.40;0.40;;;;;;;;;;1872918;75;26837;-47
2022/05/08 06:13:43;;;;;;;1.10;0.50;;;;;;;;;;1864967;75;26271;-46
2022/05/08 06:16:13;;;;;;;2.17;0.40;;;;;;;;;;1880006;76;26328;-46
2022/05/08 06:18:40;;;;;;;0.50;0.50;;;;;;;;;;1873711;76;26249;-44
2022/05/08 06:21:08;;;;;;;0.45;0.45;;;;;;;;;;1866536;75;26269;-44
2022/05/08 06:23:35;;;;;;;0.30;0.30;;;;;;;;;;1878468;75;26282;-46
2022/05/08 06:26:03;;;;;;;1.05;0.40;;;;;;;;;;1872134;75;26928;-48
2022/05/08 06:28:31;;;;;;;1.27;0.60;;;;;;;;;;1875591;76;26223;-45
2022/05/08 06:30:58;;;;;;;0.35;0.35;;;;;;;;;;1875492;76;26348;-45
2022/05/08 06:33:26;;;;;;;1.30;0.50;;;;;;;;;;1867346;76;26257;-46
2022/05/08 06:35:54;;;;;;;0.40;0.40;;;;;;;;;;1877950;75;25714;-44
2022/05/08 06:38:21;;;;;;;1.77;0.40;;;;;;;;;;1867752;75;26509;-45
2022/05/08 06:40:50;;;;;;;0.72;0.50;;;;;;;;;;1878771;76;26751;-43
2022/05/08 06:43:17;;;;;;;0.53;0.40;;;;;;;;;;1874225;76;26811;-47
2022/05/08 06:45:44;;;;;;;0.82;0.50;;;;;;;;;;1863948;75;26304;-45
2022/05/08 06:48:12;;;;;;;1.60;0.50;;;;;;;;;;1871093;76;26246;-47
2022/05/08 06:50:40;;;;;;;3.10;0.42;;;;;;;;;;1856635;76;26253;-45
2022/05/08 06:53:07;;;;;;;1.10;0.40;;;;;;;;;;1877585;76;26328;-42
2022/05/08 06:55:35;;;;;;;1.98;0.60;;;;;;;;;;1872041;76;26251;-44
2022/05/08 06:58:03;;;;;;;3.12;0.60;;;;;;;;;;1876984;75;26259;-45
2022/05/08 07:03:16;;;;;;;4.58;0.82;;;;;;;;;;1869787;76;26267;-45
2022/05/08 07:05:45;;;;;;;3.15;0.65;;;;;;;;;;1858695;76;26245;-43
2022/05/08 07:08:14;;;;;;;2.85;0.88;;;;;;;;;;1876005;75;26251;-43
2022/05/08 07:10:42;;;;;;;2.02;1.15;;;;;;;;;;1879905;75;26297;-44
2022/05/08 07:13:09;;;;;;;5.00;1.10;;;;;;;;;;1878452;76;26239;-44
2022/05/08 07:15:37;;;;;;;2.95;1.00;;;;;;;;;;1868504;75;26240;-45
2022/05/08 07:18:04;;;;;;;6.78;1.25;;;;;;;;;;1878560;76;26499;-44
2022/05/08 07:20:31;;;;;;;8.53;1.10;;;;;;;;;;1866073;75;26235;-43
2022/05/08 07:22:59;;;;;;;2.47;1.17;;;;;;;;;;1873588;75;26754;-45
2022/05/08 07:25:26;;;;;;;4.42;1.40;;;;;;;;;;1878936;76;26292;-43
2022/05/08 07:27:53;;;;;;;8.53;1.92;;;;;;;;;;1870329;75;26659;-43
2022/05/08 07:30:21;;;;;;;5.47;1.85;;;;;;;;;;1868640;75;26666;-49
2022/05/08 07:32:48;;;;;;;6.03;2.33;;;;;;;;;;1881216;75;26242;-45
2022/05/08 07:38:03;;;;;;;3.20;2.50;;;;;;;;;;1877884;76;26279;-46
2022/05/08 07:40:32;;;;;;;7.70;2.75;;;;;;;;;;1858250;76;26231;-43
2022/05/08 07:42:59;;;;;;;6.72;2.70;;;;;;;;;;1872896;76;26765;-47
2022/05/08 07:45:26;;;;;;;11.97;4.33;;;;;;;;;;1882597;75;26740;-47
2022/05/08 07:47:54;;;;;;;14.60;4.10;;;;;;;;;;1859327;76;27158;-46
2022/05/08 07:50:22;;;;;;;8.55;3.77;;;;;;;;;;1872861;76;26273;-44
2022/05/08 07:52:49;;;;;;;13.18;4.10;;;;;;;;;;1873603;75;26572;-43
2022/05/08 07:55:16;;;;;;;8.45;3.58;;;;;;;;;;1850459;76;26252;-49
2022/05/08 07:57:44;;;;;;;11.20;3.83;;;;;;;;;;1868374;75;26469;-48
2022/05/08 08:00:12;;;;;;;10.48;3.60;;;;;;;;;;1858026;75;26371;-45
2022/05/08 08:02:39;;;;;;;9.55;3.95;;;;;;;;;;1860000;75;26338;-50
2022/05/08 08:05:07;;;;;;;10.15;3.50;;;;;;;;;;1869046;75;26392;-47
2022/05/08 08:07:34;;;;;;;7.70;3.37;;;;;;;;;;1878311;76;26523;-44
2022/05/08 08:10:01;;;;;;;7.50;3.70;;;;;;;;;;1856439;76;26733;-46
2022/05/08 08:12:28;;;;;;;8.25;3.33;;;;;;;;;;1875400;75;26733;-44
2022/05/08 08:14:56;;;;;;;9.28;3.50;;;;;;;;;;1869486;74;26643;-48
2022/05/08 08:17:23;;;;;;;7.97;4.00;;;;;;;;;;1872136;74;27420;-48
2022/05/08 08:19:50;;;;;;;6.50;3.27;;;;;;;;;;1883736;75;27430;-47
2022/05/08 08:22:18;;;;;;;7.03;3.30;;;;;;;;;;1888911;75;26246;-48
2022/05/08 08:24:46;;;;;;;4.35;3.10;;;;;;;;;;1876676;75;26243;-46
2022/05/08 08:27:16;;;;;;;5.40;2.70;;;;;;;;;;1894521;75;26775;-44
2022/05/08 08:29:43;;;;;;;7.53;2.65;;;;;;;;;;1891550;75;26282;-48
2022/05/08 08:32:10;;;;;;;8.33;3.15;;;;;;;;;;1894417;75;26281;-46
2022/05/08 08:34:38;;;;;;;7.35;2.65;;;;;;;;;;1895184;75;26320;-47
2022/05/08 08:37:05;;;;;;;3.00;2.60;;;;;;;;;;1885688;74;26331;-44
2022/05/08 08:39:32;;;;;;;2.80;2.45;;;;;;;;;;1887061;75;26714;-49
2022/05/08 08:42:10;;;;;;;5.83;2.70;;;;;;;;;;1867630;75;26743;-48
2022/05/08 08:47:44;;;;;;;7.30;2.37;;;;;;;;;;1823349;78;26553;-49
2022/05/08 08:50:12;;;;;;;3.25;2.27;;;;;;;;;;1834299;77;26361;-43
2022/05/08 08:52:39;;;;;;;3.25;2.08;;;;;;;;;;1841534;78;26371;-45
2022/05/08 08:55:08;;;;;;;3.90;2.25;;;;;;;;;;1832984;78;26237;-47
2022/05/08 08:57:36;;;;;;;2.85;2.10;;;;;;;;;;1818349;78;26289;-47
2022/05/08 09:00:05;;;;;;;2.47;1.95;;;;;;;;;;1838113;78;27496;-43
2022/05/08 09:02:34;;;;;;;3.95;2.10;;;;;;;;;;1832492;78;26272;-47
2022/05/08 09:05:06;;;;;;;3.50;1.92;;;;;;;;;;1830187;78;26719;-46
2022/05/08 09:07:46;;;;;;;2.10;1.90;;;;;;;;;;1827612;78;26819;-46
2022/05/08 09:10:23;;;;;;;1.80;1.70;;;;;;;;;;1821919;78;26296;-45
2022/05/08 09:12:56;;;;;;;1.80;1.70;;;;;;;;;;1818111;78;26293;-45
2022/05/08 09:15:27;;;;;;;1.62;1.57;;;;;;;;;;1831932;78;26261;-45
2022/05/08 09:17:56;;;;;;;1.87;1.67;;;;;;;;;;1832075;78;26265;-46
2022/05/08 09:20:29;;;;;;;1.72;1.62;;;;;;;;;;1841911;78;26269;-42
2022/05/08 09:22:58;;;;;;;2.10;1.37;;;;;;;;;;1827878;78;26305;-47
2022/05/08 09:25:27;;;;;;;1.70;1.60;;;;;;;;;;1833165;78;26277;-44
2022/05/08 09:27:58;;;;;;;1.57;1.47;;;;;;;;;;1836960;78;26257;-46
2022/05/08 09:30:26;;;;;;;3.65;1.30;;;;;;;;;;1828841;78;26329;-44
2022/05/08 09:32:53;;;;;;;1.22;1.20;;;;;;;;;;1834103;78;26367;-42
2022/05/08 09:35:21;;;;;;;1.25;1.20;;;;;;;;;;1834432;78;26253;-49
2022/05/08 09:37:49;;;;;;;1.52;1.30;;;;;;;;;;1813999;78;26338;-48
2022/05/08 09:40:20;;;;;;;1.57;1.30;;;;;;;;;;1822333;78;26287;-44
2022/05/08 09:42:48;;;;;;;4.72;1.12;;;;;;;;;;1831047;78;26310;-45
2022/05/08 09:45:15;;;;;;;4.00;1.30;;;;;;;;;;1816949;78;26296;-44
2022/05/08 09:47:44;;;;;;;1.62;0.90;;;;;;;;;;1842321;78;26327;-43
2022/05/08 09:50:12;;;;;;;2.25;1.05;;;;;;;;;;1831808;78;26801;-45
2022/05/08 09:52:41;;;;;;;1.20;1.10;;;;;;;;;;1810482;78;26323;-47
2022/05/08 09:55:09;;;;;;;3.42;1.07;;;;;;;;;;1826970;78;26350;-49
2022/05/08 09:57:37;;;;;;;1.52;1.00;;;;;;;;;;1822857;78;27498;-48
2022/05/08 10:00:04;;;;;;;2.72;0.98;;;;;;;;;;1833750;78;26352;-46
2022/05/08 10:02:31;;;;;;;2.22;1.15;;;;;;;;;;1831017;78;26211;-43
2022/05/08 10:04:59;;;;;;;1.40;0.85;;;;;;;;;;1834265;78;26273;-48
2022/05/08 10:07:27;;;;;;;1.12;0.93;;;;;;;;;;1822388;78;26344;-44
2022/05/08 10:15:33;;;;;;;2.15;0.90;;;;;;;;;;1834595;78;26852;-44
2022/05/08 10:18:19;;;;;;;2.92;0.90;;;;;;;;;;1804736;77;26736;-43
2022/05/08 10:21:03;;;;;;;1.85;0.90;;;;;;;;;;1831244;78;26272;-47
2022/05/08 10:23:45;;;;;;;0.88;0.88;;;;;;;;;;1820333;78;26772;-44
2022/05/08 10:26:17;;;;;;;1.50;0.90;;;;;;;;;;1833913;78;26335;-46
2022/05/08 10:29:00;;;;;;;2.25;0.90;;;;;;;;;;1836727;78;26414;-47
2022/05/08 10:31:45;;;;;;;0.98;0.80;;;;;;;;;;1821659;78;26210;-44
2022/05/08 10:34:11;;;;;;;1.82;0.57;;;;;;;;;;1818793;78;26757;-45
2022/05/08 10:36:43;;;;;;;2.40;0.78;;;;;;;;;;1821107;78;26272;-43
2022/05/08 10:39:26;;;;;;;1.52;0.65;;;;;;;;;;1826700;78;26712;-42
2022/05/08 10:41:53;;;;;;;1.67;0.60;;;;;;;;;;1815756;78;26272;-46
2022/05/08 10:44:37;;;;;;;2.62;0.82;;;;;;;;;;1823183;78;26308;-46
2022/05/08 10:47:22;;;;;;;0.88;0.68;;;;;;;;;;1828298;78;26331;-45
2022/05/08 10:49:50;;;;;;;0.57;0.57;;;;;;;;;;1828490;78;26732;-43
2022/05/08 10:52:17;;;;;;;0.98;0.60;;;;;;;;;;1821910;78;27402;-43
2022/05/08 10:55:01;;;;;;;2.65;0.75;;;;;;;;;;1830779;78;26809;-47
2022/05/08 10:57:32;;;;;;;0.50;0.50;;;;;;;;;;1825011;78;26287;-44
2022/05/08 10:59:59;;;;;;;0.53;0.53;;;;;;;;;;1830832;78;26263;-46
2022/05/08 11:02:40;;;;;;;0.50;0.50;;;;;;;;;;1813092;78;26332;-46
2022/05/08 11:05:09;;;;;;;0.60;0.57;;;;;;;;;;1819962;77;26672;-45
2022/05/08 11:07:38;;;;;;;2.15;0.57;;;;;;;;;;1824003;78;26331;-46
2022/05/08 11:10:16;;;;;;;0.68;0.68;;;;;;;;;;1827635;78;26864;-50
2022/05/08 11:12:56;;;;;;;0.47;0.47;;;;;;;;;;1829421;78;26277;-46
2022/05/08 11:15:24;;;;;;;0.40;0.40;;;;;;;;;;1825740;78;26287;-42
2022/05/08 11:18:04;;;;;;;0.90;0.53;;;;;;;;;;1821408;78;27506;-44
2022/05/08 11:20:33;;;;;;;1.40;0.80;;;;;;;;;;1834157;78;26858;-45
2022/05/08 11:23:00;;;;;;;1.00;0.50;;;;;;;;;;1826999;78;25915;-43
2022/05/08 11:25:27;;;;;;;1.05;0.60;;;;;;;;;;1833799;78;26363;-48
2022/05/08 11:27:55;;;;;;;1.85;0.50;;;;;;;;;;1817916;78;26288;-47
2022/05/08 11:30:33;;;;;;;1.07;0.50;;;;;;;;;;1818825;78;26342;-46
2022/05/08 11:36:11;;;;;;;1.45;0.60;;;;;;;;;;1828160;78;25978;-47
2022/05/08 11:38:45;;;;;;;2.33;0.60;;;;;;;;;;1825129;77;26285;-48
2022/05/08 11:41:14;;;;;;;1.60;0.65;;;;;;;;;;1822209;78;26399;-48
2022/05/08 11:43:45;;;;;;;2.77;0.60;;;;;;;;;;1827178;78;26273;-44
2022/05/08 11:46:17;;;;;;;3.00;0.62;;;;;;;;;;1827030;78;26680;-46
2022/05/08 11:48:47;;;;;;;3.92;0.60;;;;;;;;;;1814498;78;26406;-45
2022/05/08 11:51:15;;;;;;;1.27;0.65;;;;;;;;;;1820500;78;26340;-48
2022/05/08 11:53:45;;;;;;;1.75;0.57;;;;;;;;;;1817325;78;26307;-45
2022/05/08 11:56:26;;;;;;;1.05;0.60;;;;;;;;;;1823068;78;27036;-47
2022/05/08 11:58:58;;;;;;;2.02;0.68;;;;;;;;;;1819728;78;26331;-49
2022/05/08 12:01:27;;;;;;;0.60;0.60;;;;;;;;;;1822452;78;26732;-46
2022/05/08 12:03:54;;;;;;;1.35;0.60;;;;;;;;;;1816175;78;26302;-42
2022/05/08 12:06:22;;;;;;;0.85;0.50;;;;;;;;;;1831108;78;26281;-49
2022/05/08 12:08:49;;;;;;;0.68;0.50;;;;;;;;;;1821699;78;26775;-44
2022/05/08 12:11:30;;;;;;;1.65;0.40;;;;;;;;;;1835376;78;26379;-44
2022/05/08 12:14:02;;;;;;;2.22;0.50;;;;;;;;;;1828214;78;26326;-46
2022/05/08 12:16:31;;;;;;;0.82;0.40;;;;;;;;;;1812806;78;26708;-44
2022/05/08 12:19:19;;;;;;;0.88;0.50;;;;;;;;;;1816249;78;26302;-45
2022/05/08 12:21:44;;;;;;;0.60;0.60;;;;;;;;;;1825504;78;26226;-46
2022/05/08 12:24:12;;;;;;;0.53;0.42;;;;;;;;;;1829576;78;27456;-44
2022/05/08 12:26:40;;;;;;;0.60;0.60;;;;;;;;;;1827347;78;26287;-43
2022/05/08 12:29:08;;;;;;;1.05;0.50;;;;;;;;;;1825674;78;26765;-42
2022/05/08 12:31:36;;;;;;;1.30;0.50;;;;;;;;;;1826861;78;27221;-43
2022/05/08 12:34:05;;;;;;;2.83;0.78;;;;;;;;;;1820235;77;26339;-44
2022/05/08 12:36:33;;;;;;;1.27;0.57;;;;;;;;;;1824110;78;26508;-48
2022/05/08 12:39:00;;;;;;;1.20;0.90;;;;;;;;;;1815573;78;26351;-43
2022/05/08 12:41:28;;;;;;;2.00;0.65;;;;;;;;;;1811532;78;26322;-45
2022/05/08 12:43:55;;;;;;;4.05;0.40;;;;;;;;;;1815187;78;26815;-46
2022/05/08 12:46:22;;;;;;;6.30;0.53;;;;;;;;;;1817770;78;26836;-45
2022/05/08 12:48:50;;;;;;;0.40;0.40;;;;;;;;;;1831332;78;26280;-44
2022/05/08 12:51:17;;;;;;;0.82;0.62;;;;;;;;;;1821374;78;26309;-50
2022/05/08 12:53:44;;;;;;;0.50;0.50;;;;;;;;;;1827290;78;26342;-46
2022/05/08 12:56:12;;;;;;;1.82;0.62;;;;;;;;;;1823981;77;26930;-45
2022/05/08 13:01:25;;;;;;;1.02;0.50;;;;;;;;;;1828664;78;26300;-48
2022/05/08 13:03:53;;;;;;;3.40;0.60;;;;;;;;;;1816180;78;26336;-45
2022/05/08 13:06:21;;;;;;;1.75;0.78;;;;;;;;;;1822949;78;26551;-45
2022/05/08 13:08:48;;;;;;;2.30;0.68;;;;;;;;;;1817648;78;26334;-45
2022/05/08 13:11:15;;;;;;;2.30;0.60;;;;;;;;;;1812682;78;26416;-44
2022/05/08 13:13:43;;;;;;;0.68;0.60;;;;;;;;;;1828300;77;26319;-45
2022/05/08 13:16:14;;;;;;;5.42;1.00;;;;;;;;;;1830223;78;26378;-44
2022/05/08 13:18:39;;;;;;;4.65;0.62;;;;;;;;;;1838990;78;26764;-46
2022/05/08 13:21:07;;;;;;;2.58;0.60;;;;;;;;;;1828190;78;26412;-42
2022/05/08 13:23:34;;;;;;;2.08;0.60;;;;;;;;;;1829771;78;26754;-43
2022/05/08 13:26:02;;;;;;;2.27;0.70;;;;;;;;;;1827247;78;26296;-45
2022/05/08 13:28:31;;;;;;;1.67;0.62;;;;;;;;;;1835184;78;26339;-42
2022/05/08 13:30:58;;;;;;;9.88;0.80;;;;;;;;;;1834533;78;26378;-46
2022/05/08 13:33:26;;;;;;;2.33;0.60;;;;;;;;;;1830558;78;26378;-44
2022/05/08 13:35:53;;;;;;;1.00;0.70;;;;;;;;;;1829521;78;26276;-45
2022/05/08 13:38:21;;;;;;;1.85;0.60;;;;;;;;;;1830481;78;26292;-43
2022/05/08 13:40:49;;;;;;;5.40;0.68;;;;;;;;;;1828047;78;26237;-46
2022/05/08 13:43:16;;;;;;;0.57;0.57;;;;;;;;;;1823320;78;26301;-44
2022/05/08 13:45:44;;;;;;;1.17;0.72;;;;;;;;;;1836248;78;26277;-44
2022/05/08 13:48:12;;;;;;;3.92;0.70;;;;;;;;;;1836409;78;27244;-46
2022/05/08 13:50:42;;;;;;;1.17;0.60;;;;;;;;;;1831497;78;26338;-46
2022/05/08 13:53:09;;;;;;;1.20;0.62;;;;;;;;;;1826789;78;26574;-44
2022/05/08 13:55:38;;;;;;;3.33;0.80;;;;;;;;;;1826678;78;26308;-44
2022/05/08 13:58:10;;;;;;;4.72;0.70;;;;;;;;;;1830574;78;26354;-41
2022/05/08 14:00:39;;;;;;;2.15;0.78;;;;;;;;;;1837496;78;26276;-43
2022/05/08 14:03:11;;;;;;;2.80;0.60;;;;;;;;;;1832496;78;26320;-42
2022/05/08 14:05:36;;;;;;;1.40;0.80;;;;;;;;;;1825846;78;26304;-44
2022/05/08 14:08:05;;;;;;;2.37;0.80;;;;;;;;;;1817877;78;26347;-43
2022/05/08 14:10:33;;;;;;;1.25;0.60;;;;;;;;;;1828545;78;26348;-42
2022/05/08 14:13:00;;;;;;;1.10;0.42;;;;;;;;;;1820383;78;26361;-46
2022/05/08 14:15:27;;;;;;;2.67;0.53;;;;;;;;;;1818668;78;26323;-49
2022/05/08 14:17:55;;;;;;;0.78;0.50;;;;;;;;;;1819036;78;26268;-42
2022/05/08 14:20:22;;;;;;;3.60;0.70;;;;;;;;;;1822046;78;26307;-46
2022/05/08 14:22:50;;;;;;;1.15;0.60;;;;;;;;;;1813301;78;26276;-48
2022/05/08 14:25:17;;;;;;;0.47;0.42;;;;;;;;;;1835308;78;27419;-49
2022/05/08 14:27:44;;;;;;;0.75;0.50;;;;;;;;;;1827774;78;26591;-46
2022/05/08 14:30:12;;;;;;;0.53;0.53;;;;;;;;;;1830421;78;26265;-44
2022/05/08 14:38:13;;;;;;;2.45;0.57;;;;;;;;;;1818957;78;26422;-47
2022/05/08 14:40:42;;;;;;;0.50;0.50;;;;;;;;;;1834702;78;26932;-49
2022/05/08 14:43:13;;;;;;;0.53;0.53;;;;;;;;;;1829767;78;26264;-43
2022/05/08 14:45:40;;;;;;;0.40;0.40;;;;;;;;;;1830036;78;26260;-45
2022/05/08 14:48:07;;;;;;;0.50;0.50;;;;;;;;;;1823912;78;26312;-48
2022/05/08 14:50:35;;;;;;;0.40;0.40;;;;;;;;;;1816859;78;26355;-45
2022/05/08 14:53:05;;;;;;;1.85;0.40;;;;;;;;;;1829880;78;26568;-43
2022/05/08 14:55:32;;;;;;;0.65;0.50;;;;;;;;;;1826360;78;26792;-43
2022/05/08 14:57:59;;;;;;;0.50;0.50;;;;;;;;;;1817531;78;26371;-46
2022/05/08 15:00:26;;;;;;;0.47;0.47;;;;;;;;;;1824878;78;26300;-47
2022/05/08 15:02:55;;;;;;;1.85;0.70;;;;;;;;;;1830546;78;26319;-47
2022/05/08 15:05:22;;;;;;;1.30;0.65;;;;;;;;;;1835207;78;26304;-41
2022/05/08 15:07:49;;;;;;;0.50;0.50;;;;;;;;;;1830109;78;26304;-44
2022/05/08 15:10:17;;;;;;;0.40;0.40;;;;;;;;;;1835948;78;26304;-45
2022/05/08 15:12:46;;;;;;;0.35;0.35;;;;;;;;;;1833231;78;26257;-44
2022/05/08 15:15:13;;;;;;;0.50;0.50;;;;;;;;;;1831631;78;27528;-42
2022/05/08 15:18:47;;;;;;;2.08;0.60;;;;;;;;;;1830460;78;26887;-42
2022/05/08 15:20:10;;;;;;;2.20;0.88;;;;;;;;;;1820773;78;26281;-50
2022/05/08 15:22:37;;;;;;;0.60;0.60;;;;;;;;;;1829984;78;26366;-49
2022/05/08 15:25:05;;;;;;;1.52;0.80;;;;;;;;;;1824844;78;26846;-47
2022/05/08 15:27:32;;;;;;;1.87;1.40;;;;;;;;;;1822299;78;26276;-50
2022/05/08 15:30:01;;;;;;;1.95;1.70;;;;;;;;;;1823675;78;26327;-50